Time;durP1;ratioP1;P1;durP2;ratioP2;P2;SDS_P1;SDS_P2;PMS_P1;PMS_P2;Temp;Humidity;BMP_temperature;BMP_pressure;BME280_temperature;BME280_humidity;BME280_pressure;Samples;Min_cycle;Max_cycle;Signal;HPM_P1;HPM_P2
2023/07/20 00:01:21;;;;;;;4.60;2.90;;;;;;;16.03;69.09;99776.20;103695;279;38256;-69
2023/07/20 00:03:56;;;;;;;4.10;2.80;;;;;;;16.08;69.23;99778.54;103668;279;38402;-69
2023/07/20 00:06:29;;;;;;;4.30;2.80;;;;;;;16.10;69.29;99767.61;103679;279;38470;-72
2023/07/20 00:09:03;;;;;;;5.10;2.80;;;;;;;16.09;69.26;99762.94;103648;279;38996;-70
2023/07/20 00:11:40;;;;;;;4.30;3.00;;;;;;;16.09;69.45;99765.95;103705;279;38809;-76
2023/07/20 00:14:14;;;;;;;4.30;2.70;;;;;;;16.09;69.71;99774.61;103680;279;38861;-75
2023/07/20 00:16:49;;;;;;;3.30;2.50;;;;;;;16.08;69.82;99782.04;103727;279;38242;-73
2023/07/20 00:19:23;;;;;;;7.90;3.00;;;;;;;16.08;70.09;99789.61;103680;279;38230;-72
2023/07/20 00:21:57;;;;;;;4.30;2.90;;;;;;;16.08;70.38;99797.15;103719;279;39673;-73
2023/07/20 00:24:34;;;;;;;5.20;2.90;;;;;;;16.08;70.52;99794.90;103701;279;38387;-75
2023/07/20 00:27:10;;;;;;;3.10;2.60;;;;;;;16.07;70.81;99789.33;103724;279;38513;-73
2023/07/20 00:29:44;;;;;;;5.50;3.00;;;;;;;16.04;70.90;99783.54;103753;279;38412;-71
2023/07/20 00:32:19;;;;;;;5.20;2.70;;;;;;;16.02;71.20;99771.15;103716;279;38541;-69
2023/07/20 00:34:53;;;;;;;3.70;2.70;;;;;;;16.03;71.07;99773.36;103770;279;38520;-72
2023/07/20 00:37:28;;;;;;;6.20;3.10;;;;;;;16.06;71.15;99761.96;103695;279;38450;-72
2023/07/20 00:40:04;;;;;;;3.40;2.80;;;;;;;16.07;70.90;99759.20;103720;279;39825;-75
2023/07/20 00:42:39;;;;;;;3.80;3.00;;;;;;;16.07;70.87;99767.52;103693;279;38443;-75
2023/07/20 00:45:13;;;;;;;3.70;2.80;;;;;;;16.06;70.92;99762.15;103732;279;38561;-70
2023/07/20 00:47:47;;;;;;;5.00;3.10;;;;;;;16.04;70.73;99768.04;103701;279;38494;-69
2023/07/20 00:50:22;;;;;;;4.30;2.80;;;;;;;16.05;70.64;99768.35;103659;279;38405;-70
2023/07/20 00:52:55;;;;;;;4.90;3.10;;;;;;;16.05;70.73;99763.78;103700;279;38422;-71
2023/07/20 00:55:29;;;;;;;6.00;3.30;;;;;;;16.05;70.59;99763.27;103577;279;172219;-71
2023/07/20 00:58:04;;;;;;;4.80;3.40;;;;;;;16.03;70.50;99763.91;103666;279;39921;-70
2023/07/20 01:00:38;;;;;;;4.40;3.00;;;;;;;16.01;70.42;99768.05;103712;279;39021;-75
2023/07/20 01:03:13;;;;;;;5.20;3.40;;;;;;;15.98;70.40;99765.64;103693;279;38489;-75
2023/07/20 01:05:52;;;;;;;4.90;3.10;;;;;;;15.97;70.34;99763.23;103723;279;39395;-76
2023/07/20 01:08:32;;;;;;;4.70;3.00;;;;;;;15.93;70.47;99768.08;103601;279;38428;-75
2023/07/20 01:11:14;;;;;;;3.80;3.00;;;;;;;15.94;70.61;99767.34;103783;279;38394;-75
2023/07/20 01:13:48;;;;;;;6.20;3.60;;;;;;;15.93;70.70;99762.12;103737;279;38314;-74
2023/07/20 01:16:22;;;;;;;4.60;3.10;;;;;;;15.92;70.92;99754.84;103818;279;38403;-71
2023/07/20 01:18:57;;;;;;;7.40;3.30;;;;;;;15.85;71.10;99756.73;103759;279;38296;-73
2023/07/20 01:21:35;;;;;;;6.10;2.90;;;;;;;15.82;71.32;99767.86;103784;279;39116;-71
2023/07/20 01:24:50;;;;;;;3.60;2.80;;;;;;;15.77;71.31;99772.73;103773;279;39283;-71
2023/07/20 01:27:51;;;;;;;5.10;2.90;;;;;;;15.70;71.71;99777.09;103706;279;38241;-74
2023/07/20 01:30:45;;;;;;;4.40;2.80;;;;;;;15.66;72.20;99771.89;103767;279;38656;-72
2023/07/20 01:33:20;;;;;;;6.00;3.40;;;;;;;15.62;72.35;99766.33;103695;272;38239;-72
2023/07/20 01:35:57;;;;;;;5.90;2.60;;;;;;;15.57;72.66;99761.98;103712;279;38356;-73
2023/07/20 01:38:31;;;;;;;4.00;3.20;;;;;;;15.54;72.55;99763.77;103706;279;38813;-73
2023/07/20 01:41:07;;;;;;;4.20;3.00;;;;;;;15.52;72.93;99759.10;103753;279;38244;-73
2023/07/20 01:43:41;;;;;;;6.40;3.80;;;;;;;15.53;73.17;99761.87;103721;279;40137;-73
2023/07/20 01:46:15;;;;;;;7.30;4.20;;;;;;;15.60;73.21;99763.00;103739;279;38272;-72
2023/07/20 01:48:50;;;;;;;6.40;3.60;;;;;;;15.65;73.24;99767.38;103633;280;38461;-70
2023/07/20 01:51:24;;;;;;;7.80;4.20;;;;;;;15.69;73.33;99770.80;103721;279;39919;-72
2023/07/20 01:53:58;;;;;;;5.10;3.10;;;;;;;15.72;73.49;99771.83;103597;279;174984;-72
2023/07/20 01:56:32;;;;;;;4.10;2.90;;;;;;;15.79;73.71;99768.02;103796;279;38285;-72
2023/07/20 01:59:06;;;;;;;6.10;3.00;;;;;;;15.82;73.68;99774.51;103739;279;38381;-72
2023/07/20 02:01:40;;;;;;;6.50;3.50;;;;;;;15.84;73.61;99769.94;103731;279;38972;-74
2023/07/20 02:04:14;;;;;;;7.80;3.40;;;;;;;15.85;73.67;99779.89;103662;279;39494;-75
2023/07/20 02:06:49;;;;;;;4.10;3.20;;;;;;;15.88;73.48;99786.91;103744;279;38434;-74
2023/07/20 02:09:24;;;;;;;5.90;3.30;;;;;;;15.88;73.67;99785.66;103079;279;897838;-75
2023/07/20 02:11:58;;;;;;;5.50;3.80;;;;;;;15.89;73.39;99777.89;103608;279;174674;-73
2023/07/20 02:14:31;;;;;;;4.70;3.30;;;;;;;15.90;73.59;99781.14;103753;279;38284;-75
2023/07/20 02:17:10;;;;;;;4.70;3.20;;;;;;;15.90;73.51;99783.78;103722;279;38228;-72
2023/07/20 02:19:45;;;;;;;4.80;3.30;;;;;;;15.90;73.43;99783.83;103746;279;39476;-73
2023/07/20 02:22:19;;;;;;;5.40;3.30;;;;;;;15.90;73.53;99784.14;103736;279;39133;-73
2023/07/20 02:24:53;;;;;;;4.40;2.80;;;;;;;15.89;73.51;99781.91;103766;279;38279;-71
2023/07/20 02:27:27;;;;;;;6.20;3.20;;;;;;;15.91;73.53;99780.58;103663;280;38422;-71
2023/07/20 02:30:02;;;;;;;4.40;3.10;;;;;;;15.94;73.45;99774.39;103669;279;38566;-72
2023/07/20 02:32:36;;;;;;;5.30;3.50;;;;;;;15.92;73.78;99770.95;103736;279;38387;-72
2023/07/20 02:35:11;;;;;;;5.70;3.50;;;;;;;15.90;73.88;99772.34;103769;279;38372;-75
2023/07/20 02:37:45;;;;;;;5.40;3.40;;;;;;;15.88;73.94;99762.11;103767;279;39410;-75
2023/07/20 02:40:19;;;;;;;4.30;2.80;;;;;;;15.88;74.07;99761.43;103757;279;39065;-70
2023/07/20 02:42:53;;;;;;;4.90;3.20;;;;;;;15.88;73.96;99757.91;103750;279;38209;-72
2023/07/20 02:45:27;;;;;;;6.10;3.10;;;;;;;15.88;73.85;99757.36;103755;279;39988;-75
2023/07/20 02:48:02;;;;;;;3.90;3.10;;;;;;;15.90;73.62;99756.73;103740;279;38310;-75
2023/07/20 02:50:36;;;;;;;4.40;3.00;;;;;;;15.89;73.50;99755.04;103779;279;38929;-72
2023/07/20 02:53:10;;;;;;;3.80;3.00;;;;;;;15.85;73.60;99761.80;103767;279;40122;-73
2023/07/20 02:55:44;;;;;;;4.50;3.00;;;;;;;15.87;73.58;99764.16;103718;279;38529;-75
2023/07/20 02:58:18;;;;;;;4.30;2.90;;;;;;;15.88;73.31;99765.45;103720;279;38291;-75
2023/07/20 03:00:52;;;;;;;4.20;2.80;;;;;;;15.87;73.47;99763.96;103757;279;38435;-73
2023/07/20 03:03:26;;;;;;;3.80;3.20;;;;;;;15.88;73.64;99764.41;103736;279;39414;-73
2023/07/20 03:06:02;;;;;;;6.60;3.40;;;;;;;15.88;73.65;99766.90;103637;279;174997;-72
2023/07/20 03:08:36;;;;;;;5.50;3.10;;;;;;;15.87;73.61;99769.94;103623;279;174969;-73
2023/07/20 03:11:10;;;;;;;3.50;2.90;;;;;;;15.87;73.49;99773.99;103609;279;174988;-72
2023/07/20 03:13:44;;;;;;;4.60;3.40;;;;;;;15.89;74.04;99774.20;103713;279;38665;-73
2023/07/20 03:16:20;;;;;;;3.80;3.00;;;;;;;15.90;74.22;99774.67;103709;279;38467;-74
2023/07/20 03:18:56;;;;;;;3.60;2.90;;;;;;;15.88;74.29;99779.33;103709;279;39657;-75
2023/07/20 03:21:30;;;;;;;4.60;3.10;;;;;;;15.87;74.64;99785.95;103720;279;39648;-72
2023/07/20 03:24:04;;;;;;;4.50;2.70;;;;;;;15.87;74.92;99782.98;103759;279;38521;-72
2023/07/20 03:26:38;;;;;;;3.70;2.90;;;;;;;15.87;75.27;99786.98;103742;279;39411;-71
2023/07/20 03:29:13;;;;;;;4.20;2.70;;;;;;;15.89;75.77;99788.61;103733;279;38227;-73
2023/07/20 03:31:47;;;;;;;4.10;3.00;;;;;;;15.89;76.02;99786.10;103735;279;38509;-72
2023/07/20 03:34:21;;;;;;;4.50;3.30;;;;;;;15.87;76.22;99795.39;103740;279;38541;-72
2023/07/20 03:36:55;;;;;;;4.80;2.90;;;;;;;15.89;76.90;99809.91;103744;279;38649;-71
2023/07/20 03:39:29;;;;;;;4.10;3.00;;;;;;;15.93;77.36;99818.42;103765;279;39052;-70
2023/07/20 03:42:03;;;;;;;4.80;2.90;;;;;;;15.95;77.64;99828.10;103662;280;38308;-73
2023/07/20 03:44:40;;;;;;;5.50;2.90;;;;;;;15.99;77.92;99843.16;103719;279;39689;-72
2023/07/20 03:47:14;;;;;;;3.40;2.60;;;;;;;16.02;77.86;99843.16;103697;279;38708;-71
2023/07/20 03:49:49;;;;;;;4.30;3.20;;;;;;;16.04;78.01;99834.93;103728;279;38565;-72
2023/07/20 03:52:23;;;;;;;3.70;3.10;;;;;;;16.06;77.85;99836.36;103674;279;38852;-70
2023/07/20 03:54:57;;;;;;;4.40;3.40;;;;;;;16.05;77.70;99836.62;103676;279;38434;-73
2023/07/20 03:57:33;;;;;;;4.00;3.20;;;;;;;16.04;77.86;99836.30;103690;279;39965;-74
2023/07/20 04:00:10;;;;;;;4.30;3.00;;;;;;;16.02;78.24;99833.14;103714;279;39332;-72
2023/07/20 04:02:44;;;;;;;4.30;2.80;;;;;;;15.99;78.43;99838.23;103121;279;898624;-72
2023/07/20 04:05:18;;;;;;;3.90;3.40;;;;;;;16.00;78.62;99842.55;103767;279;38515;-72
2023/07/20 04:07:52;;;;;;;4.80;3.50;;;;;;;16.01;78.91;99846.52;103727;279;39459;-73
2023/07/20 04:10:26;;;;;;;4.50;3.50;;;;;;;16.02;79.20;99848.26;103739;268;38713;-71
2023/07/20 04:13:20;;;;;;;4.40;3.70;;;;;;;15.98;79.40;99855.68;103768;279;39203;-71
2023/07/20 04:15:54;;;;;;;5.50;3.50;;;;;;;15.99;79.63;99863.59;103798;279;38263;-75
2023/07/20 04:18:29;;;;;;;4.10;3.10;;;;;;;15.98;79.95;99865.19;103750;279;39368;-75
2023/07/20 04:21:03;;;;;;;5.00;3.30;;;;;;;16.00;80.33;99864.70;103666;279;174973;-71
2023/07/20 04:23:36;;;;;;;4.50;3.60;;;;;;;16.03;80.61;99861.52;103700;279;38516;-70
2023/07/20 04:26:12;;;;;;;4.70;3.80;;;;;;;16.05;80.87;99867.36;103821;279;38671;-70
2023/07/20 04:28:47;;;;;;;5.90;4.10;;;;;;;16.10;81.14;99883.59;103761;279;39421;-73
2023/07/20 04:31:21;;;;;;;6.00;3.80;;;;;;;16.15;81.12;99893.09;103727;279;39399;-73
2023/07/20 04:33:55;;;;;;;4.80;3.90;;;;;;;16.21;81.13;99898.52;103657;279;39374;-72
2023/07/20 04:36:32;;;;;;;5.80;4.00;;;;;;;16.25;81.32;99895.02;103698;279;39830;-72
2023/07/20 04:39:08;;;;;;;4.70;3.70;;;;;;;16.28;81.18;99897.45;103695;279;38320;-73
2023/07/20 04:41:41;;;;;;;4.80;3.70;;;;;;;16.30;81.33;99896.85;103697;279;39703;-72
2023/07/20 04:44:15;;;;;;;4.70;3.80;;;;;;;16.30;81.33;99897.30;103664;279;38256;-73
2023/07/20 04:46:49;;;;;;;6.00;4.10;;;;;;;16.34;81.46;99901.65;103709;279;39399;-74
2023/07/20 04:49:23;;;;;;;6.20;4.40;;;;;;;16.37;81.49;99900.06;103657;279;38307;-75
2023/07/20 04:51:57;;;;;;;5.70;4.20;;;;;;;16.40;81.58;99905.09;103727;279;38419;-73
2023/07/20 04:54:31;;;;;;;7.20;3.90;;;;;;;16.43;81.60;99910.14;103715;279;38390;-72
2023/07/20 04:57:12;;;;;;;4.40;3.90;;;;;;;16.48;81.68;99909.41;103735;279;39816;-75
2023/07/20 04:59:46;;;;;;;6.40;4.30;;;;;;;16.52;81.40;99907.05;103683;279;38397;-72
2023/07/20 05:02:20;;;;;;;5.30;3.90;;;;;;;16.57;81.43;99904.79;103726;279;39669;-74
2023/07/20 05:04:54;;;;;;;5.70;4.00;;;;;;;16.64;81.38;99904.30;103723;267;39409;-72
2023/07/20 05:07:28;;;;;;;5.30;3.90;;;;;;;16.67;81.39;99908.64;103695;279;38816;-71
2023/07/20 05:10:02;;;;;;;5.30;3.80;;;;;;;16.71;81.32;99904.13;103732;279;38220;-69
2023/07/20 05:12:36;;;;;;;7.60;4.40;;;;;;;16.81;81.35;99905.08;103668;279;38953;-69
2023/07/20 05:15:12;;;;;;;6.90;3.80;;;;;;;16.89;81.44;99901.12;103710;279;38791;-75
2023/07/20 05:17:48;;;;;;;7.20;3.90;;;;;;;16.97;81.36;99898.45;103227;279;635350;-73
2023/07/20 05:20:26;;;;;;;5.90;4.30;;;;;;;17.04;81.52;99899.36;103643;279;39670;-71
2023/07/20 05:23:00;;;;;;;5.80;4.20;;;;;;;17.10;81.56;99906.69;103705;279;38791;-73
2023/07/20 05:25:35;;;;;;;6.10;4.20;;;;;;;17.14;81.24;99904.44;103728;279;38942;-71
2023/07/20 05:28:15;;;;;;;4.70;4.10;;;;;;;17.20;81.10;99900.64;103734;279;38408;-71
2023/07/20 05:30:53;;;;;;;6.20;4.20;;;;;;;17.24;80.64;99899.48;103691;279;38459;-71
2023/07/20 05:33:29;;;;;;;5.50;4.00;;;;;;;17.28;80.64;99897.38;103713;279;40254;-73
2023/07/20 05:36:10;;;;;;;5.60;4.10;;;;;;;17.37;80.88;99894.63;103727;279;38452;-70
2023/07/20 05:38:49;;;;;;;6.40;4.40;;;;;;;17.45;80.64;99894.58;103701;279;39258;-75
2023/07/20 05:41:33;;;;;;;7.10;4.50;;;;;;;17.47;79.96;99892.66;103706;279;38264;-71
2023/07/20 05:44:07;;;;;;;8.40;4.80;;;;;;;17.41;79.05;99893.45;103817;279;39284;-72
2023/07/20 05:46:47;;;;;;;5.20;4.60;;;;;;;17.30;78.84;99894.29;103754;279;38549;-75
2023/07/20 05:49:23;;;;;;;7.00;4.10;;;;;;;17.26;79.20;99895.98;103775;279;40415;-74
2023/07/20 05:51:57;;;;;;;5.20;4.00;;;;;;;17.29;79.38;99890.64;103772;279;38562;-71
2023/07/20 05:54:33;;;;;;;5.20;3.90;;;;;;;17.35;79.80;99887.37;103643;279;171923;-73
2023/07/20 05:57:10;;;;;;;5.80;4.40;;;;;;;17.42;79.80;99886.30;103753;279;39802;-73
2023/07/20 05:59:44;;;;;;;6.90;4.70;;;;;;;17.45;79.39;99887.37;103734;279;38262;-70
2023/07/20 06:02:19;;;;;;;5.90;4.30;;;;;;;17.42;78.99;99886.30;103742;279;38371;-72
2023/07/20 06:04:54;;;;;;;6.10;4.20;;;;;;;17.41;78.95;99887.15;103779;279;38512;-74
2023/07/20 06:07:28;;;;;;;4.60;3.90;;;;;;;17.40;79.13;99890.69;103771;279;38938;-75
2023/07/20 06:10:02;;;;;;;4.90;4.00;;;;;;;17.41;79.02;99885.91;103722;279;38444;-72
2023/07/20 06:12:37;;;;;;;7.30;4.20;;;;;;;17.41;79.01;99887.30;103769;279;38256;-70
2023/07/20 06:15:30;;;;;;;5.20;4.40;;;;;;;17.38;78.92;99886.48;103795;267;38240;-69
2023/07/20 06:18:06;;;;;;;5.10;4.60;;;;;;;17.32;78.81;99878.98;103766;279;38860;-73
2023/07/20 06:20:40;;;;;;;4.60;4.10;;;;;;;17.30;78.96;99881.79;103825;279;39387;-75
2023/07/20 06:23:15;;;;;;;6.50;3.90;;;;;;;17.32;79.21;99881.12;103784;279;38313;-74
2023/07/20 06:25:50;;;;;;;5.80;4.10;;;;;;;17.34;79.30;99881.44;103836;279;39481;-71
2023/07/20 06:28:25;;;;;;;5.30;4.40;;;;;;;17.36;79.13;99878.66;103766;279;38520;-71
2023/07/20 06:31:07;;;;;;;5.40;4.80;;;;;;;17.36;79.05;99885.20;103728;279;38881;-72
2023/07/20 06:33:45;;;;;;;8.00;4.70;;;;;;;17.38;79.40;99884.14;103732;279;38267;-73
2023/07/20 06:36:25;;;;;;;5.20;4.10;;;;;;;17.40;79.48;99880.84;103764;279;38648;-72
2023/07/20 06:39:03;;;;;;;5.80;4.10;;;;;;;17.46;79.79;99881.64;103754;279;38583;-72
2023/07/20 06:41:38;;;;;;;8.10;4.50;;;;;;;17.46;79.42;99880.73;103681;279;38502;-71
2023/07/20 06:44:13;;;;;;;5.70;4.30;;;;;;;17.45;79.53;99878.88;103744;279;38801;-71
2023/07/20 06:46:48;;;;;;;7.50;4.70;;;;;;;17.44;79.48;99874.52;103747;279;39383;-71
2023/07/20 06:49:31;;;;;;;8.20;4.90;;;;;;;17.46;79.78;99872.65;103728;279;38244;-71
2023/07/20 06:52:11;;;;;;;9.20;5.10;;;;;;;17.48;79.82;99864.19;103695;279;38487;-70
2023/07/20 06:54:49;;;;;;;5.50;4.50;;;;;;;17.49;79.48;99866.23;103731;279;38289;-71
2023/07/20 06:57:23;;;;;;;6.70;4.60;;;;;;;17.50;79.29;99873.59;103683;279;39632;-69
2023/07/20 07:00:06;;;;;;;7.50;4.30;;;;;;;17.48;78.69;99873.16;103702;279;39393;-72
2023/07/20 07:02:42;;;;;;;6.70;4.40;;;;;;;17.46;78.30;99872.61;103736;279;38310;-75
2023/07/20 07:05:18;;;;;;;5.20;4.40;;;;;;;17.42;78.28;99869.89;103736;279;38703;-70
2023/07/20 07:07:57;;;;;;;7.30;4.50;;;;;;;17.37;78.17;99870.84;103746;279;38254;-71
2023/07/20 07:10:42;;;;;;;5.70;4.50;;;;;;;17.36;78.37;99872.36;103729;279;38239;-73
2023/07/20 07:13:20;;;;;;;6.40;4.30;;;;;;;17.36;78.22;99872.85;103684;279;38374;-74
2023/07/20 07:15:54;;;;;;;7.80;4.40;;;;;;;17.36;78.15;99873.69;103713;279;38251;-70
2023/07/20 07:18:29;;;;;;;6.50;4.60;;;;;;;17.35;78.07;99881.02;103698;279;38990;-71
2023/07/20 07:21:03;;;;;;;5.90;4.20;;;;;;;17.34;77.89;99884.06;103752;279;39224;-73
2023/07/20 07:23:38;;;;;;;5.40;3.80;;;;;;;17.33;77.97;99885.63;103703;279;39399;-74
2023/07/20 07:26:13;;;;;;;4.90;3.70;;;;;;;17.30;78.06;99887.20;103675;279;39392;-71
2023/07/20 07:28:47;;;;;;;6.30;3.90;;;;;;;17.25;77.70;99890.56;103672;279;39911;-70
2023/07/20 07:31:23;;;;;;;5.50;3.50;;;;;;;17.20;77.84;99898.85;103680;279;38686;-72
2023/07/20 07:33:57;;;;;;;4.50;3.50;;;;;;;17.18;77.92;99901.30;103696;279;38417;-73
2023/07/20 07:36:32;;;;;;;4.90;4.30;;;;;;;17.15;77.98;99906.32;103724;279;38853;-73
2023/07/20 07:39:06;;;;;;;4.30;3.90;;;;;;;17.10;78.33;99914.75;103665;279;39439;-73
2023/07/20 07:41:43;;;;;;;5.50;3.90;;;;;;;17.06;78.36;99923.19;103683;279;39474;-71
2023/07/20 07:44:17;;;;;;;6.10;3.80;;;;;;;17.02;78.52;99924.67;103672;279;40161;-69
2023/07/20 07:46:55;;;;;;;4.90;3.90;;;;;;;17.00;78.75;99920.73;103639;279;174896;-71
2023/07/20 07:49:29;;;;;;;5.80;4.10;;;;;;;17.02;79.21;99927.64;103730;279;38467;-71
2023/07/20 07:52:03;;;;;;;4.90;3.90;;;;;;;17.05;79.23;99930.85;103770;279;38643;-71
2023/07/20 07:54:40;;;;;;;4.00;3.40;;;;;;;17.06;79.13;99935.34;103694;279;38244;-71
2023/07/20 07:57:14;;;;;;;6.00;3.30;;;;;;;16.99;78.88;99934.38;103585;279;174704;-72
2023/07/20 07:59:51;;;;;;;3.80;3.40;;;;;;;16.97;78.85;99936.84;103708;279;38329;-70
2023/07/20 08:02:28;;;;;;;5.50;3.70;;;;;;;16.94;78.92;99940.02;103684;279;39395;-71
2023/07/20 08:05:02;;;;;;;4.90;3.70;;;;;;;16.92;79.11;99943.38;103721;279;38729;-69
2023/07/20 08:07:36;;;;;;;6.70;3.60;;;;;;;16.87;79.19;99946.17;103679;279;39447;-71
2023/07/20 08:10:12;;;;;;;4.40;3.70;;;;;;;16.85;79.26;99946.83;103695;279;38260;-69
2023/07/20 08:12:46;;;;;;;6.60;3.60;;;;;;;16.84;79.53;99949.41;103702;279;39504;-70
2023/07/20 08:15:20;;;;;;;4.30;3.50;;;;;;;16.83;79.62;99947.39;103678;279;39377;-69
2023/07/20 08:17:54;;;;;;;6.20;3.70;;;;;;;16.82;79.96;99949.37;103690;268;38718;-70
2023/07/20 08:20:28;;;;;;;6.40;4.00;;;;;;;16.80;80.26;99948.64;103682;279;38249;-72
2023/07/20 08:23:02;;;;;;;4.70;3.60;;;;;;;16.81;80.50;99949.83;103708;279;38480;-71
2023/07/20 08:25:36;;;;;;;4.50;4.10;;;;;;;16.87;81.02;99949.88;103699;279;38590;-73
2023/07/20 08:28:10;;;;;;;6.00;4.00;;;;;;;16.95;80.93;99951.61;103679;279;38712;-73
2023/07/20 08:30:48;;;;;;;5.80;4.40;;;;;;;16.97;80.63;99948.45;103728;279;38395;-71
2023/07/20 08:33:23;;;;;;;6.60;4.20;;;;;;;16.98;80.84;99959.50;103676;279;39427;-71
2023/07/20 08:35:57;;;;;;;4.70;4.20;;;;;;;16.95;81.16;99961.69;103699;279;39633;-73
2023/07/20 08:38:31;;;;;;;4.40;4.00;;;;;;;16.97;81.83;99967.99;103712;279;39443;-69
2023/07/20 08:41:05;;;;;;;4.70;4.10;;;;;;;17.06;82.63;99963.52;103740;279;39608;-72
2023/07/20 08:43:39;;;;;;;6.60;4.00;;;;;;;17.15;82.72;99965.55;103738;279;38300;-70
2023/07/20 08:46:14;;;;;;;5.80;4.10;;;;;;;17.24;82.93;99962.05;103785;279;38474;-73
2023/07/20 08:48:48;;;;;;;5.20;4.70;;;;;;;17.35;83.40;99965.84;103690;279;40004;-70
2023/07/20 08:51:25;;;;;;;4.80;4.30;;;;;;;17.44;83.08;99973.29;103579;279;174869;-74
2023/07/20 08:54:03;;;;;;;4.90;4.40;;;;;;;17.50;82.91;99974.27;103692;279;38315;-74
2023/07/20 08:56:38;;;;;;;4.80;4.30;;;;;;;17.60;83.28;99974.95;103610;279;174853;-74
2023/07/20 08:59:13;;;;;;;8.50;4.10;;;;;;;17.70;83.27;99970.66;103709;279;38281;-77
2023/07/20 09:01:47;;;;;;;4.90;3.80;;;;;;;17.86;83.42;99972.00;103737;279;38621;-69
2023/07/20 09:04:21;;;;;;;6.80;4.10;;;;;;;18.05;83.21;99980.66;103735;279;38369;-69
2023/07/20 09:06:55;;;;;;;5.50;3.90;;;;;;;18.17;82.63;99979.73;103736;279;39427;-72
2023/07/20 09:09:29;;;;;;;5.50;3.90;;;;;;;18.26;82.22;99979.55;103677;279;39402;-74
2023/07/20 09:12:03;;;;;;;4.40;3.70;;;;;;;18.32;81.99;99977.66;103697;279;38219;-71
2023/07/20 09:14:38;;;;;;;5.30;3.10;;;;;;;18.40;81.57;99982.94;103697;279;39406;-71
2023/07/20 09:17:15;;;;;;;3.00;2.70;;;;;;;18.45;81.16;99981.43;103700;279;38264;-70
2023/07/20 09:19:54;;;;;;;5.50;3.70;;;;;;;18.56;81.23;99981.98;103769;279;38699;-71
2023/07/20 09:22:33;;;;;;;3.70;3.30;;;;;;;18.67;81.09;99978.14;103702;280;38362;-71
2023/07/20 09:25:09;;;;;;;3.70;3.20;;;;;;;18.77;80.76;99978.67;103678;280;38245;-73
2023/07/20 09:27:46;;;;;;;5.50;2.70;;;;;;;18.90;80.82;99977.48;103716;280;39473;-73
2023/07/20 09:30:25;;;;;;;3.40;2.50;;;;;;;19.03;80.50;99979.41;103674;280;38496;-71
2023/07/20 09:33:00;;;;;;;4.30;2.70;;;;;;;19.11;79.26;99980.05;103674;280;38244;-71
2023/07/20 09:35:34;;;;;;;3.50;2.60;;;;;;;19.17;78.49;99982.17;103705;280;38504;-71
2023/07/20 09:38:09;;;;;;;3.20;2.40;;;;;;;19.26;78.35;99978.25;103701;280;39389;-72
2023/07/20 09:40:43;;;;;;;3.60;3.00;;;;;;;19.34;77.56;99979.91;103693;280;39397;-71
2023/07/20 09:43:18;;;;;;;3.50;2.40;;;;;;;19.41;76.93;99982.05;103673;280;39572;-69
2023/07/20 09:45:52;;;;;;;3.40;2.50;;;;;;;19.52;76.75;99978.13;103651;280;39410;-68
2023/07/20 09:48:28;;;;;;;2.60;2.10;;;;;;;19.64;76.36;99978.21;103648;280;38382;-71
2023/07/20 09:51:02;;;;;;;3.10;1.90;;;;;;;19.80;75.52;99978.69;103645;280;38266;-72
2023/07/20 09:53:37;;;;;;;4.30;2.60;;;;;;;19.93;75.30;99978.29;103039;280;893024;-72
2023/07/20 09:56:11;;;;;;;2.50;2.20;;;;;;;20.02;74.41;99982.33;103701;280;38235;-73
2023/07/20 09:58:45;;;;;;;2.90;2.10;;;;;;;20.07;74.56;99982.98;103667;280;39391;-73
2023/07/20 10:01:23;;;;;;;2.70;2.50;;;;;;;20.10;74.61;99984.83;103674;280;39625;-72
2023/07/20 10:04:01;;;;;;;3.20;2.40;;;;;;;20.12;73.52;99984.30;103681;280;38293;-71
2023/07/20 10:06:36;;;;;;;2.20;1.80;;;;;;;20.11;73.08;99981.08;103505;280;38240;-73
2023/07/20 10:09:11;;;;;;;2.60;2.30;;;;;;;20.07;72.79;99983.46;103704;280;38228;-73
2023/07/20 10:11:52;;;;;;;3.10;2.30;;;;;;;20.06;72.81;99981.49;103543;279;39403;-73
2023/07/20 10:14:26;;;;;;;2.40;2.00;;;;;;;20.03;73.23;99982.23;103694;280;38911;-75
2023/07/20 10:17:04;;;;;;;3.10;2.10;;;;;;;20.05;72.97;99980.66;103715;280;38518;-72
2023/07/20 10:19:44;;;;;;;2.00;1.80;;;;;;;20.07;72.45;99975.69;103661;280;40456;-71
2023/07/20 10:22:20;;;;;;;3.00;1.70;;;;;;;20.02;72.34;99977.87;103723;279;38152;-72
2023/07/20 10:24:57;;;;;;;2.90;2.30;;;;;;;20.02;72.99;99976.88;103752;268;38873;-71
2023/07/20 10:27:34;;;;;;;3.00;2.60;;;;;;;20.02;72.74;99977.55;103673;279;38421;-72
2023/07/20 10:30:12;;;;;;;2.70;1.90;;;;;;;20.03;72.50;99978.01;103751;279;38517;-73
2023/07/20 10:32:49;;;;;;;3.30;1.90;;;;;;;20.05;72.93;99977.14;103689;279;38490;-73
2023/07/20 10:35:24;;;;;;;7.40;2.40;;;;;;;20.09;72.70;99974.98;103662;268;39633;-71
2023/07/20 10:38:02;;;;;;;4.60;2.60;;;;;;;20.18;73.56;99977.11;103716;279;39459;-75
2023/07/20 10:40:39;;;;;;;3.30;2.50;;;;;;;20.30;73.62;99976.44;103751;279;38641;-72
2023/07/20 10:43:16;;;;;;;2.90;2.40;;;;;;;20.40;73.06;99975.98;103713;279;38313;-71
2023/07/20 10:45:55;;;;;;;3.40;2.20;;;;;;;20.59;73.01;99976.64;103737;279;41415;-72
2023/07/20 10:48:29;;;;;;;2.50;1.70;;;;;;;21.02;72.31;99971.08;103717;279;38240;-73
2023/07/20 10:51:22;;;;;;;3.50;1.90;;;;;;;21.39;71.21;99971.73;103744;279;38459;-73
2023/07/20 10:53:58;;;;;;;1.70;1.50;;;;;;;21.66;70.45;99963.18;103724;279;39538;-72
2023/07/20 10:56:32;;;;;;;2.00;1.60;;;;;;;21.84;69.01;99952.81;103737;279;38232;-73
2023/07/20 10:59:21;;;;;;;3.10;1.70;;;;;;;22.09;68.86;99950.96;103691;279;39885;-73
2023/07/20 11:02:01;;;;;;;2.70;1.80;;;;;;;22.20;67.39;99954.69;103758;279;39988;-74
2023/07/20 11:04:44;;;;;;;2.90;2.10;;;;;;;22.26;67.53;99955.29;103676;279;38247;-75
2023/07/20 11:07:38;;;;;;;2.70;2.20;;;;;;;22.32;66.07;99960.11;103714;279;38291;-71
2023/07/20 11:10:28;;;;;;;2.50;2.30;;;;;;;22.29;65.39;99960.39;103687;279;38276;-72
2023/07/20 11:13:26;;;;;;;2.50;2.10;;;;;;;22.25;64.72;99960.04;103733;279;39123;-71
2023/07/20 11:16:09;;;;;;;2.50;2.10;;;;;;;22.18;64.66;99956.09;103085;279;891351;-72
2023/07/20 11:18:44;;;;;;;2.20;1.90;;;;;;;22.08;64.59;99954.27;103681;279;38393;-72
2023/07/20 11:21:19;;;;;;;3.20;2.20;;;;;;;21.99;63.54;99954.76;103689;279;38295;-75
2023/07/20 11:23:55;;;;;;;2.70;2.20;;;;;;;21.88;63.11;99961.50;103665;279;39930;-73
2023/07/20 11:26:29;;;;;;;2.30;2.10;;;;;;;21.80;64.07;99958.62;103702;279;38239;-72
2023/07/20 11:29:04;;;;;;;2.40;2.20;;;;;;;21.80;64.44;99956.04;103669;279;38667;-72
2023/07/20 11:31:42;;;;;;;2.40;2.10;;;;;;;21.93;64.20;99952.67;103713;279;39322;-73
2023/07/20 11:34:18;;;;;;;2.20;2.00;;;;;;;22.09;64.35;99949.21;103736;279;38726;-73
2023/07/20 11:36:54;;;;;;;2.10;1.90;;;;;;;22.24;64.44;99943.59;103726;279;40127;-74
2023/07/20 11:39:32;;;;;;;2.00;1.70;;;;;;;22.38;63.22;99940.34;103665;279;38474;-71
2023/07/20 11:42:08;;;;;;;2.90;2.00;;;;;;;22.43;62.32;99938.64;103632;279;38281;-73
2023/07/20 11:44:43;;;;;;;2.30;2.00;;;;;;;22.48;62.76;99934.55;103721;279;38221;-73
2023/07/20 11:47:19;;;;;;;2.10;1.80;;;;;;;22.68;62.99;99933.20;103643;279;38264;-72
2023/07/20 11:49:54;;;;;;;2.20;1.60;;;;;;;22.85;62.60;99936.40;103717;279;38688;-73
2023/07/20 11:52:29;;;;;;;7.90;1.90;;;;;;;23.04;61.49;99931.39;103542;281;38357;-72
2023/07/20 11:55:04;;;;;;;2.40;2.20;;;;;;;23.23;61.29;99929.45;103766;279;38281;-73
2023/07/20 11:57:38;;;;;;;2.30;2.10;;;;;;;23.30;60.48;99929.91;103697;279;38246;-74
2023/07/20 12:00:15;;;;;;;1.70;1.60;;;;;;;23.27;59.44;99928.42;103762;279;38274;-73
2023/07/20 12:02:50;;;;;;;1.60;1.50;;;;;;;23.36;59.95;99931.05;103674;279;40638;-75
2023/07/20 12:05:25;;;;;;;2.00;1.40;;;;;;;23.54;59.81;99935.36;103730;279;38985;-72
2023/07/20 12:08:02;;;;;;;1.60;1.50;;;;;;;23.59;58.46;99932.02;103755;279;39384;-74
2023/07/20 12:10:36;;;;;;;1.50;1.40;;;;;;;23.59;58.26;99930.95;103758;279;38254;-71
2023/07/20 12:13:10;;;;;;;1.80;1.50;;;;;;;23.54;58.43;99928.92;103714;279;39988;-71
2023/07/20 12:15:45;;;;;;;2.00;1.60;;;;;;;23.50;58.02;99933.44;103735;279;40065;-75